sensor_id;sensor_type;location;lat;lon;timestamp;noise_LAeq;noise_LA_min;noise_LA_max;noise_LA01;noise_LA95
67306;Laerm;57661;51.436;5.978;2023-04-29T00:00:02;28.16;27.23;28.89;;
67306;Laerm;57661;51.436;5.978;2023-04-29T00:00:15;28.41;27.01;30.79;;
67306;Laerm;57661;51.436;5.978;2023-04-29T00:00:26;28.18;27.26;29.01;;
67306;Laerm;57661;51.436;5.978;2023-04-29T00:00:37;28.15;27.11;29.11;;
67306;Laerm;57661;51.436;5.978;2023-04-29T00:00:47;28.18;27.11;29.17;;
67306;Laerm;57661;51.436;5.978;2023-04-29T00:00:57;28.18;27.28;29.18;;
67306;Laerm;57661;51.436;5.978;2023-04-29T00:01:07;28.21;26.96;28.96;;
67306;Laerm;57661;51.436;5.978;2023-04-29T00:01:17;28.20;26.90;28.97;;
67306;Laerm;57661;51.436;5.978;2023-04-29T00:01:28;28.19;27.33;29.01;;
67306;Laerm;57661;51.436;5.978;2023-04-29T00:01:38;28.20;27.38;29.07;;
67306;Laerm;57661;51.436;5.978;2023-04-29T00:01:48;28.17;27.02;29.06;;
67306;Laerm;57661;51.436;5.978;2023-04-29T00:01:58;28.21;27.22;29.40;;
67306;Laerm;57661;51.436;5.978;2023-04-29T00:02:09;28.20;27.19;29.09;;
67306;Laerm;57661;51.436;5.978;2023-04-29T00:02:19;28.18;27.42;28.97;;
67306;Laerm;57661;51.436;5.978;2023-04-29T00:02:29;28.15;27.23;28.97;;
67306;Laerm;57661;51.436;5.978;2023-04-29T00:02:40;28.17;27.19;29.23;;
67306;Laerm;57661;51.436;5.978;2023-04-29T00:02:50;28.17;27.02;29.01;;
67306;Laerm;57661;51.436;5.978;2023-04-29T00:03:00;28.17;27.33;28.95;;
67306;Laerm;57661;51.436;5.978;2023-04-29T00:03:11;28.16;27.18;28.98;;
67306;Laerm;57661;51.436;5.978;2023-04-29T00:03:21;28.21;27.41;29.28;;
67306;Laerm;57661;51.436;5.978;2023-04-29T00:03:31;28.17;27.29;29.10;;
67306;Laerm;57661;51.436;5.978;2023-04-29T00:03:42;28.21;27.20;29.37;;
67306;Laerm;57661;51.436;5.978;2023-04-29T00:03:53;28.21;27.28;29.11;;
67306;Laerm;57661;51.436;5.978;2023-04-29T00:04:03;28.21;27.32;29.02;;
67306;Laerm;57661;51.436;5.978;2023-04-29T00:04:13;28.18;27.36;29.07;;
67306;Laerm;57661;51.436;5.978;2023-04-29T00:04:25;28.18;27.20;28.93;;
67306;Laerm;57661;51.436;5.978;2023-04-29T00:04:35;28.18;27.25;29.24;;
67306;Laerm;57661;51.436;5.978;2023-04-29T00:04:46;28.21;27.16;29.15;;
67306;Laerm;57661;51.436;5.978;2023-04-29T00:04:56;28.17;27.21;29.11;;
67306;Laerm;57661;51.436;5.978;2023-04-29T00:05:07;28.18;27.18;29.14;;
67306;Laerm;57661;51.436;5.978;2023-04-29T00:05:17;28.21;27.13;29.36;;
67306;Laerm;57661;51.436;5.978;2023-04-29T00:05:28;28.18;27.23;29.03;;
67306;Laerm;57661;51.436;5.978;2023-04-29T00:05:38;28.14;27.29;29.09;;
67306;Laerm;57661;51.436;5.978;2023-04-29T00:05:48;28.18;27.19;29.04;;
67306;Laerm;57661;51.436;5.978;2023-04-29T00:05:58;28.19;27.35;29.21;;
67306;Laerm;57661;51.436;5.978;2023-04-29T00:06:09;28.19;27.22;29.02;;
67306;Laerm;57661;51.436;5.978;2023-04-29T00:06:20;28.29;27.22;29.73;;
67306;Laerm;57661;51.436;5.978;2023-04-29T00:06:31;28.23;27.34;29.24;;
67306;Laerm;57661;51.436;5.978;2023-04-29T00:06:41;28.18;27.26;29.16;;
67306;Laerm;57661;51.436;5.978;2023-04-29T00:06:54;28.19;26.97;29.06;;
67306;Laerm;57661;51.436;5.978;2023-04-29T00:07:04;28.18;27.10;29.21;;
67306;Laerm;57661;51.436;5.978;2023-04-29T00:07:15;28.18;27.22;29.06;;
67306;Laerm;57661;51.436;5.978;2023-04-29T00:07:25;28.17;27.25;29.05;;
67306;Laerm;57661;51.436;5.978;2023-04-29T00:07:35;28.15;27.50;29.09;;
67306;Laerm;57661;51.436;5.978;2023-04-29T00:07:45;28.17;27.24;29.43;;
67306;Laerm;57661;51.436;5.978;2023-04-29T00:07:55;28.20;27.29;29.32;;
67306;Laerm;57661;51.436;5.978;2023-04-29T00:08:06;28.22;27.35;29.30;;
67306;Laerm;57661;51.436;5.978;2023-04-29T00:08:17;28.19;27.31;29.22;;
67306;Laerm;57661;51.436;5.978;2023-04-29T00:08:27;28.17;27.30;29.13;;
67306;Laerm;57661;51.436;5.978;2023-04-29T00:08:37;28.21;27.32;29.14;;
67306;Laerm;57661;51.436;5.978;2023-04-29T00:08:47;28.16;27.18;29.14;;
67306;Laerm;57661;51.436;5.978;2023-04-29T00:08:58;28.19;27.12;28.93;;
67306;Laerm;57661;51.436;5.978;2023-04-29T00:09:08;28.18;27.01;29.20;;
67306;Laerm;57661;51.436;5.978;2023-04-29T00:09:18;28.19;27.35;29.19;;
67306;Laerm;57661;51.436;5.978;2023-04-29T00:09:28;28.16;27.33;29.03;;
67306;Laerm;57661;51.436;5.978;2023-04-29T00:09:39;28.20;27.21;28.93;;
67306;Laerm;57661;51.436;5.978;2023-04-29T00:09:49;28.17;27.34;29.07;;
67306;Laerm;57661;51.436;5.978;2023-04-29T00:10:00;28.20;27.18;29.32;;
67306;Laerm;57661;51.436;5.978;2023-04-29T00:10:10;28.21;27.13;29.21;;
67306;Laerm;57661;51.436;5.978;2023-04-29T00:10:23;28.20;27.16;29.14;;
67306;Laerm;57661;51.436;5.978;2023-04-29T00:10:33;28.21;27.08;29.18;;
67306;Laerm;57661;51.436;5.978;2023-04-29T00:10:44;28.16;27.28;29.10;;
67306;Laerm;57661;51.436;5.978;2023-04-29T00:10:54;28.16;27.12;28.96;;
67306;Laerm;57661;51.436;5.978;2023-04-29T00:11:04;28.23;27.36;32.18;;
67306;Laerm;57661;51.436;5.978;2023-04-29T00:11:15;28.19;27.36;29.02;;
67306;Laerm;57661;51.436;5.978;2023-04-29T00:11:25;28.19;27.25;29.00;;
67306;Laerm;57661;51.436;5.978;2023-04-29T00:11:35;28.18;27.04;29.06;;
67306;Laerm;57661;51.436;5.978;2023-04-29T00:11:45;28.21;26.96;29.19;;
67306;Laerm;57661;51.436;5.978;2023-04-29T00:11:59;28.25;27.41;29.25;;
67306;Laerm;57661;51.436;5.978;2023-04-29T00:12:13;28.20;27.09;29.51;;
67306;Laerm;57661;51.436;5.978;2023-04-29T00:12:23;28.59;27.50;31.35;;
67306;Laerm;57661;51.436;5.978;2023-04-29T00:12:33;28.24;27.27;29.34;;
67306;Laerm;57661;51.436;5.978;2023-04-29T00:12:43;28.18;27.34;29.28;;
67306;Laerm;57661;51.436;5.978;2023-04-29T00:12:53;28.18;27.33;29.46;;
67306;Laerm;57661;51.436;5.978;2023-04-29T00:13:04;28.19;27.28;29.00;;
67306;Laerm;57661;51.436;5.978;2023-04-29T00:13:14;28.16;27.11;29.00;;
67306;Laerm;57661;51.436;5.978;2023-04-29T00:13:24;28.19;26.89;29.17;;
67306;Laerm;57661;51.436;5.978;2023-04-29T00:13:35;28.19;27.26;29.06;;
67306;Laerm;57661;51.436;5.978;2023-04-29T00:13:45;28.19;27.31;29.02;;
67306;Laerm;57661;51.436;5.978;2023-04-29T00:13:55;28.27;27.32;29.72;;
67306;Laerm;57661;51.436;5.978;2023-04-29T00:14:05;28.22;27.33;29.08;;
67306;Laerm;57661;51.436;5.978;2023-04-29T00:14:16;28.20;27.15;29.04;;
67306;Laerm;57661;51.436;5.978;2023-04-29T00:14:26;28.22;27.36;29.18;;
67306;Laerm;57661;51.436;5.978;2023-04-29T00:14:36;28.26;27.14;28.99;;
67306;Laerm;57661;51.436;5.978;2023-04-29T00:14:47;30.35;27.25;37.54;;
67306;Laerm;57661;51.436;5.978;2023-04-29T00:14:57;36.70;30.97;44.71;;
67306;Laerm;57661;51.436;5.978;2023-04-29T00:15:08;36.39;31.00;42.55;;
67306;Laerm;57661;51.436;5.978;2023-04-29T00:15:18;29.95;27.33;37.97;;
67306;Laerm;57661;51.436;5.978;2023-04-29T00:15:29;28.20;27.16;28.99;;
67306;Laerm;57661;51.436;5.978;2023-04-29T00:15:40;28.19;27.32;29.38;;
67306;Laerm;57661;51.436;5.978;2023-04-29T00:15:50;28.21;27.22;28.99;;
67306;Laerm;57661;51.436;5.978;2023-04-29T00:16:00;28.18;27.08;29.34;;
67306;Laerm;57661;51.436;5.978;2023-04-29T00:16:10;28.22;27.27;29.06;;
67306;Laerm;57661;51.436;5.978;2023-04-29T00:16:20;28.20;27.10;29.22;;
67306;Laerm;57661;51.436;5.978;2023-04-29T00:16:31;36.21;27.95;45.97;;
67306;Laerm;57661;51.436;5.978;2023-04-29T00:16:42;36.08;31.25;41.37;;
67306;Laerm;57661;51.436;5.978;2023-04-29T00:16:52;34.75;27.84;40.25;;
67306;Laerm;57661;51.436;5.978;2023-04-29T00:17:02;28.38;27.44;29.51;;
67306;Laerm;57661;51.436;5.978;2023-04-29T00:17:13;28.25;27.38;29.05;;
67306;Laerm;57661;51.436;5.978;2023-04-29T00:17:23;28.20;27.13;29.04;;
67306;Laerm;57661;51.436;5.978;2023-04-29T00:17:33;28.21;27.41;29.03;;
67306;Laerm;57661;51.436;5.978;2023-04-29T00:17:44;28.16;27.21;29.36;;
67306;Laerm;57661;51.436;5.978;2023-04-29T00:17:54;28.22;27.11;32.49;;
67306;Laerm;57661;51.436;5.978;2023-04-29T00:18:05;28.17;27.27;29.21;;
67306;Laerm;57661;51.436;5.978;2023-04-29T00:18:15;28.18;27.20;29.12;;
67306;Laerm;57661;51.436;5.978;2023-04-29T00:18:25;28.20;27.33;29.01;;
67306;Laerm;57661;51.436;5.978;2023-04-29T00:18:35;28.30;27.31;29.20;;
67306;Laerm;57661;51.436;5.978;2023-04-29T00:18:46;28.18;27.35;29.01;;
67306;Laerm;57661;51.436;5.978;2023-04-29T00:18:57;28.20;27.30;29.02;;
67306;Laerm;57661;51.436;5.978;2023-04-29T00:19:08;28.17;26.89;28.91;;
67306;Laerm;57661;51.436;5.978;2023-04-29T00:19:27;28.18;27.05;29.92;;
67306;Laerm;57661;51.436;5.978;2023-04-29T00:19:40;28.18;27.13;29.26;;
67306;Laerm;57661;51.436;5.978;2023-04-29T00:19:50;28.17;27.28;29.19;;
67306;Laerm;57661;51.436;5.978;2023-04-29T00:20:01;28.19;27.23;29.15;;
67306;Laerm;57661;51.436;5.978;2023-04-29T00:20:11;28.18;27.26;29.04;;
67306;Laerm;57661;51.436;5.978;2023-04-29T00:20:24;28.18;27.19;29.19;;
67306;Laerm;57661;51.436;5.978;2023-04-29T00:20:35;28.16;27.29;29.09;;
67306;Laerm;57661;51.436;5.978;2023-04-29T00:20:47;28.17;27.30;29.10;;
67306;Laerm;57661;51.436;5.978;2023-04-29T00:20:57;28.19;27.37;29.02;;
67306;Laerm;57661;51.436;5.978;2023-04-29T00:21:07;28.17;27.27;28.98;;
67306;Laerm;57661;51.436;5.978;2023-04-29T00:21:17;28.18;27.07;29.18;;
67306;Laerm;57661;51.436;5.978;2023-04-29T00:21:27;28.23;27.23;29.15;;
67306;Laerm;57661;51.436;5.978;2023-04-29T00:21:44;28.17;27.32;29.26;;
67306;Laerm;57661;51.436;5.978;2023-04-29T00:21:54;28.15;27.22;29.03;;
67306;Laerm;57661;51.436;5.978;2023-04-29T00:22:04;28.20;27.06;29.07;;
67306;Laerm;57661;51.436;5.978;2023-04-29T00:22:15;28.16;27.09;28.97;;
67306;Laerm;57661;51.436;5.978;2023-04-29T00:22:25;28.20;27.40;29.26;;
67306;Laerm;57661;51.436;5.978;2023-04-29T00:22:35;28.18;27.14;29.36;;
67306;Laerm;57661;51.436;5.978;2023-04-29T00:22:45;28.19;27.19;29.14;;
67306;Laerm;57661;51.436;5.978;2023-04-29T00:22:56;28.30;27.37;34.92;;
67306;Laerm;57661;51.436;5.978;2023-04-29T00:23:06;28.17;27.09;29.92;;
67306;Laerm;57661;51.436;5.978;2023-04-29T00:23:16;28.16;26.90;29.14;;
67306;Laerm;57661;51.436;5.978;2023-04-29T00:23:26;28.22;27.29;29.13;;
67306;Laerm;57661;51.436;5.978;2023-04-29T00:23:37;28.18;27.41;29.29;;
67306;Laerm;57661;51.436;5.978;2023-04-29T00:23:47;28.19;27.24;29.08;;
67306;Laerm;57661;51.436;5.978;2023-04-29T00:23:57;28.19;27.36;29.10;;
67306;Laerm;57661;51.436;5.978;2023-04-29T00:24:07;28.21;27.13;29.05;;
67306;Laerm;57661;51.436;5.978;2023-04-29T00:24:18;28.21;27.12;29.74;;
67306;Laerm;57661;51.436;5.978;2023-04-29T00:24:28;28.16;27.37;28.96;;
67306;Laerm;57661;51.436;5.978;2023-04-29T00:24:38;28.17;27.23;29.33;;
67306;Laerm;57661;51.436;5.978;2023-04-29T00:24:49;28.22;27.12;29.44;;
67306;Laerm;57661;51.436;5.978;2023-04-29T00:24:59;28.21;27.20;29.15;;
67306;Laerm;57661;51.436;5.978;2023-04-29T00:25:09;28.17;27.25;29.22;;
67306;Laerm;57661;51.436;5.978;2023-04-29T00:25:21;28.19;27.08;29.28;;
67306;Laerm;57661;51.436;5.978;2023-04-29T00:25:31;28.19;27.41;28.96;;
67306;Laerm;57661;51.436;5.978;2023-04-29T00:25:41;28.19;27.29;29.04;;
67306;Laerm;57661;51.436;5.978;2023-04-29T00:25:51;28.17;27.22;29.08;;
67306;Laerm;57661;51.436;5.978;2023-04-29T00:26:02;28.17;27.10;29.00;;
67306;Laerm;57661;51.436;5.978;2023-04-29T00:26:12;28.24;27.40;29.20;;
67306;Laerm;57661;51.436;5.978;2023-04-29T00:26:23;28.24;27.25;29.78;;
67306;Laerm;57661;51.436;5.978;2023-04-29T00:26:33;28.90;27.37;35.25;;
67306;Laerm;57661;51.436;5.978;2023-04-29T00:26:44;28.36;27.19;30.03;;
67306;Laerm;57661;51.436;5.978;2023-04-29T00:26:54;28.21;27.22;28.99;;
67306;Laerm;57661;51.436;5.978;2023-04-29T00:27:04;28.20;27.38;29.10;;
67306;Laerm;57661;51.436;5.978;2023-04-29T00:27:15;28.22;27.16;29.45;;
67306;Laerm;57661;51.436;5.978;2023-04-29T00:27:26;28.35;27.34;31.59;;
67306;Laerm;57661;51.436;5.978;2023-04-29T00:27:36;39.82;28.38;48.24;;
67306;Laerm;57661;51.436;5.978;2023-04-29T00:27:48;40.96;34.49;47.63;;
67306;Laerm;57661;51.436;5.978;2023-04-29T00:27:58;39.58;28.12;50.06;;
67306;Laerm;57661;51.436;5.978;2023-04-29T00:28:12;28.45;27.27;30.22;;
67306;Laerm;57661;51.436;5.978;2023-04-29T00:28:22;28.29;27.27;29.19;;
67306;Laerm;57661;51.436;5.978;2023-04-29T00:28:32;28.28;27.48;29.14;;
67306;Laerm;57661;51.436;5.978;2023-04-29T00:28:46;28.27;27.48;29.08;;
67306;Laerm;57661;51.436;5.978;2023-04-29T00:28:56;36.61;27.53;47.07;;
67306;Laerm;57661;51.436;5.978;2023-04-29T00:29:06;41.51;33.81;47.51;;
67306;Laerm;57661;51.436;5.978;2023-04-29T00:29:16;36.25;27.83;45.18;;
67306;Laerm;57661;51.436;5.978;2023-04-29T00:29:27;28.53;27.22;35.91;;
67306;Laerm;57661;51.436;5.978;2023-04-29T00:29:37;28.23;27.35;29.13;;
67306;Laerm;57661;51.436;5.978;2023-04-29T00:29:48;28.19;27.23;29.03;;
67306;Laerm;57661;51.436;5.978;2023-04-29T00:29:58;28.21;27.38;29.19;;
67306;Laerm;57661;51.436;5.978;2023-04-29T00:30:08;28.24;26.51;29.04;;
67306;Laerm;57661;51.436;5.978;2023-04-29T00:30:18;28.18;27.21;29.27;;
67306;Laerm;57661;51.436;5.978;2023-04-29T00:30:29;28.19;27.16;29.12;;
67306;Laerm;57661;51.436;5.978;2023-04-29T00:30:39;28.18;27.34;29.07;;
67306;Laerm;57661;51.436;5.978;2023-04-29T00:30:50;28.15;27.33;29.15;;
67306;Laerm;57661;51.436;5.978;2023-04-29T00:31:00;28.17;27.42;29.10;;
67306;Laerm;57661;51.436;5.978;2023-04-29T00:31:10;28.37;27.19;31.64;;
67306;Laerm;57661;51.436;5.978;2023-04-29T00:31:20;28.19;27.05;29.16;;
67306;Laerm;57661;51.436;5.978;2023-04-29T00:31:31;28.17;27.00;29.09;;
67306;Laerm;57661;51.436;5.978;2023-04-29T00:31:41;28.20;27.36;29.23;;
67306;Laerm;57661;51.436;5.978;2023-04-29T00:31:51;28.17;27.18;29.11;;
67306;Laerm;57661;51.436;5.978;2023-04-29T00:32:02;28.18;27.25;28.91;;
67306;Laerm;57661;51.436;5.978;2023-04-29T00:32:12;28.20;27.02;28.91;;
67306;Laerm;57661;51.436;5.978;2023-04-29T00:32:22;28.18;27.05;29.03;;
67306;Laerm;57661;51.436;5.978;2023-04-29T00:32:33;28.17;27.35;28.98;;
67306;Laerm;57661;51.436;5.978;2023-04-29T00:32:43;28.18;27.11;29.21;;
67306;Laerm;57661;51.436;5.978;2023-04-29T00:32:53;28.18;27.01;29.00;;
67306;Laerm;57661;51.436;5.978;2023-04-29T00:33:04;28.17;27.32;28.89;;
67306;Laerm;57661;51.436;5.978;2023-04-29T00:33:14;28.18;27.02;29.08;;
67306;Laerm;57661;51.436;5.978;2023-04-29T00:33:24;28.16;27.05;29.19;;
67306;Laerm;57661;51.436;5.978;2023-04-29T00:33:35;28.20;27.37;29.05;;
67306;Laerm;57661;51.436;5.978;2023-04-29T00:33:45;28.20;27.05;29.05;;
67306;Laerm;57661;51.436;5.978;2023-04-29T00:33:55;28.20;27.38;29.14;;
67306;Laerm;57661;51.436;5.978;2023-04-29T00:34:07;28.19;27.21;29.07;;
67306;Laerm;57661;51.436;5.978;2023-04-29T00:34:17;28.18;27.27;29.32;;
67306;Laerm;57661;51.436;5.978;2023-04-29T00:34:27;28.17;27.26;28.99;;
67306;Laerm;57661;51.436;5.978;2023-04-29T00:34:37;28.21;27.30;29.22;;
67306;Laerm;57661;51.436;5.978;2023-04-29T00:34:48;28.24;27.16;29.00;;
67306;Laerm;57661;51.436;5.978;2023-04-29T00:34:58;28.18;27.37;29.77;;
67306;Laerm;57661;51.436;5.978;2023-04-29T00:35:09;28.19;27.30;29.20;;
67306;Laerm;57661;51.436;5.978;2023-04-29T00:35:19;28.17;26.98;29.23;;
67306;Laerm;57661;51.436;5.978;2023-04-29T00:35:30;28.16;27.24;29.13;;
67306;Laerm;57661;51.436;5.978;2023-04-29T00:35:40;28.19;27.17;29.24;;
67306;Laerm;57661;51.436;5.978;2023-04-29T00:35:50;28.22;27.33;29.00;;
67306;Laerm;57661;51.436;5.978;2023-04-29T00:36:01;28.24;27.36;29.13;;
67306;Laerm;57661;51.436;5.978;2023-04-29T00:36:11;28.20;27.15;29.37;;
67306;Laerm;57661;51.436;5.978;2023-04-29T00:36:21;28.18;27.20;29.27;;
67306;Laerm;57661;51.436;5.978;2023-04-29T00:36:31;28.17;27.04;29.09;;
67306;Laerm;57661;51.436;5.978;2023-04-29T00:36:42;28.15;26.99;29.34;;
67306;Laerm;57661;51.436;5.978;2023-04-29T00:36:52;28.20;27.23;29.09;;
67306;Laerm;57661;51.436;5.978;2023-04-29T00:37:02;28.16;27.00;29.08;;
67306;Laerm;57661;51.436;5.978;2023-04-29T00:37:13;28.18;27.28;29.14;;
67306;Laerm;57661;51.436;5.978;2023-04-29T00:37:23;28.16;27.39;29.02;;
67306;Laerm;57661;51.436;5.978;2023-04-29T00:37:33;28.19;27.33;29.33;;
67306;Laerm;57661;51.436;5.978;2023-04-29T00:37:44;28.19;27.34;29.25;;
67306;Laerm;57661;51.436;5.978;2023-04-29T00:37:54;28.16;27.21;29.00;;
67306;Laerm;57661;51.436;5.978;2023-04-29T00:38:04;28.21;27.36;29.10;;
67306;Laerm;57661;51.436;5.978;2023-04-29T00:38:14;28.18;27.02;29.01;;
67306;Laerm;57661;51.436;5.978;2023-04-29T00:38:25;28.16;27.04;29.12;;
67306;Laerm;57661;51.436;5.978;2023-04-29T00:38:35;28.18;27.34;28.95;;
67306;Laerm;57661;51.436;5.978;2023-04-29T00:38:46;28.18;27.15;29.00;;
67306;Laerm;57661;51.436;5.978;2023-04-29T00:38:56;28.17;27.20;29.02;;
67306;Laerm;57661;51.436;5.978;2023-04-29T00:39:07;28.19;27.35;29.07;;
67306;Laerm;57661;51.436;5.978;2023-04-29T00:39:20;28.16;27.18;29.13;;
67306;Laerm;57661;51.436;5.978;2023-04-29T00:39:30;28.21;27.20;29.24;;
67306;Laerm;57661;51.436;5.978;2023-04-29T00:39:40;28.22;27.27;29.15;;
67306;Laerm;57661;51.436;5.978;2023-04-29T00:39:51;28.21;27.08;29.14;;
67306;Laerm;57661;51.436;5.978;2023-04-29T00:40:01;28.21;27.25;29.20;;
67306;Laerm;57661;51.436;5.978;2023-04-29T00:40:11;28.22;27.50;29.10;;
67306;Laerm;57661;51.436;5.978;2023-04-29T00:40:24;28.16;27.27;28.97;;
67306;Laerm;57661;51.436;5.978;2023-04-29T00:40:34;28.18;27.07;29.23;;
67306;Laerm;57661;51.436;5.978;2023-04-29T00:40:45;28.23;27.36;29.29;;
67306;Laerm;57661;51.436;5.978;2023-04-29T00:40:55;28.19;27.43;29.07;;
67306;Laerm;57661;51.436;5.978;2023-04-29T00:41:06;28.28;27.12;29.23;;
67306;Laerm;57661;51.436;5.978;2023-04-29T00:41:16;28.84;27.51;32.09;;
67306;Laerm;57661;51.436;5.978;2023-04-29T00:41:26;40.56;28.80;49.73;;
67306;Laerm;57661;51.436;5.978;2023-04-29T00:41:36;38.68;33.19;43.52;;
67306;Laerm;57661;51.436;5.978;2023-04-29T00:41:47;35.88;27.71;44.34;;
67306;Laerm;57661;51.436;5.978;2023-04-29T00:41:57;28.20;27.28;29.06;;
67306;Laerm;57661;51.436;5.978;2023-04-29T00:42:08;28.21;27.20;29.13;;
67306;Laerm;57661;51.436;5.978;2023-04-29T00:42:19;28.21;27.10;29.15;;
67306;Laerm;57661;51.436;5.978;2023-04-29T00:42:29;28.18;27.10;29.24;;
67306;Laerm;57661;51.436;5.978;2023-04-29T00:42:41;28.18;27.11;29.04;;
67306;Laerm;57661;51.436;5.978;2023-04-29T00:42:51;28.19;27.39;28.87;;
67306;Laerm;57661;51.436;5.978;2023-04-29T00:43:01;28.17;27.26;29.01;;
67306;Laerm;57661;51.436;5.978;2023-04-29T00:43:12;28.18;27.29;29.16;;
67306;Laerm;57661;51.436;5.978;2023-04-29T00:43:22;28.16;27.23;29.01;;
67306;Laerm;57661;51.436;5.978;2023-04-29T00:43:33;28.21;27.02;29.04;;
67306;Laerm;57661;51.436;5.978;2023-04-29T00:43:43;28.23;27.33;29.12;;
67306;Laerm;57661;51.436;5.978;2023-04-29T00:43:53;28.20;27.20;28.91;;
67306;Laerm;57661;51.436;5.978;2023-04-29T00:44:04;28.20;27.15;29.13;;
67306;Laerm;57661;51.436;5.978;2023-04-29T00:44:14;28.23;27.00;29.33;;
67306;Laerm;57661;51.436;5.978;2023-04-29T00:44:24;28.19;27.19;29.00;;
67306;Laerm;57661;51.436;5.978;2023-04-29T00:44:34;28.21;27.18;29.24;;
67306;Laerm;57661;51.436;5.978;2023-04-29T00:44:44;28.29;27.41;29.71;;
67306;Laerm;57661;51.436;5.978;2023-04-29T00:44:55;28.71;27.53;32.38;;
67306;Laerm;57661;51.436;5.978;2023-04-29T00:45:05;40.61;28.79;49.32;;
67306;Laerm;57661;51.436;5.978;2023-04-29T00:45:16;38.91;31.57;45.32;;
67306;Laerm;57661;51.436;5.978;2023-04-29T00:45:26;34.97;27.56;42.89;;
67306;Laerm;57661;51.436;5.978;2023-04-29T00:45:36;28.20;27.33;29.10;;
67306;Laerm;57661;51.436;5.978;2023-04-29T00:45:47;28.18;27.10;29.18;;
67306;Laerm;57661;51.436;5.978;2023-04-29T00:45:57;28.23;27.39;29.13;;
67306;Laerm;57661;51.436;5.978;2023-04-29T00:46:10;28.18;27.13;29.32;;
67306;Laerm;57661;51.436;5.978;2023-04-29T00:46:21;28.17;27.33;29.16;;
67306;Laerm;57661;51.436;5.978;2023-04-29T00:46:31;28.17;27.42;29.23;;
67306;Laerm;57661;51.436;5.978;2023-04-29T00:46:42;28.17;27.04;29.16;;
67306;Laerm;57661;51.436;5.978;2023-04-29T00:46:52;28.19;27.06;29.17;;
67306;Laerm;57661;51.436;5.978;2023-04-29T00:47:03;28.16;27.17;28.89;;
67306;Laerm;57661;51.436;5.978;2023-04-29T00:47:14;28.15;27.16;29.03;;
67306;Laerm;57661;51.436;5.978;2023-04-29T00:47:24;28.20;27.00;28.90;;
67306;Laerm;57661;51.436;5.978;2023-04-29T00:47:34;28.20;27.22;29.13;;
67306;Laerm;57661;51.436;5.978;2023-04-29T00:47:45;28.18;27.20;29.16;;
67306;Laerm;57661;51.436;5.978;2023-04-29T00:47:56;28.18;27.12;29.05;;
67306;Laerm;57661;51.436;5.978;2023-04-29T00:48:06;28.14;27.18;29.15;;
67306;Laerm;57661;51.436;5.978;2023-04-29T00:48:17;28.23;27.36;29.79;;
67306;Laerm;57661;51.436;5.978;2023-04-29T00:48:27;28.74;27.42;30.94;;
67306;Laerm;57661;51.436;5.978;2023-04-29T00:48:37;28.24;27.43;29.78;;
67306;Laerm;57661;51.436;5.978;2023-04-29T00:48:48;28.21;27.37;29.18;;
67306;Laerm;57661;51.436;5.978;2023-04-29T00:48:59;28.17;27.29;29.02;;
67306;Laerm;57661;51.436;5.978;2023-04-29T00:49:09;28.19;27.28;29.25;;
67306;Laerm;57661;51.436;5.978;2023-04-29T00:49:22;28.17;27.21;29.05;;
67306;Laerm;57661;51.436;5.978;2023-04-29T00:49:32;28.16;27.40;29.00;;
67306;Laerm;57661;51.436;5.978;2023-04-29T00:49:42;28.17;27.15;28.99;;
67306;Laerm;57661;51.436;5.978;2023-04-29T00:49:53;28.21;27.07;29.04;;
67306;Laerm;57661;51.436;5.978;2023-04-29T00:50:04;28.20;27.14;29.15;;
67306;Laerm;57661;51.436;5.978;2023-04-29T00:50:15;28.21;27.32;29.19;;
67306;Laerm;57661;51.436;5.978;2023-04-29T00:50:25;28.23;27.35;29.22;;
67306;Laerm;57661;51.436;5.978;2023-04-29T00:50:36;28.17;27.39;29.05;;
67306;Laerm;57661;51.436;5.978;2023-04-29T00:50:47;28.16;27.09;29.04;;
67306;Laerm;57661;51.436;5.978;2023-04-29T00:50:57;28.19;27.26;29.16;;
67306;Laerm;57661;51.436;5.978;2023-04-29T00:51:07;28.18;27.07;29.08;;
67306;Laerm;57661;51.436;5.978;2023-04-29T00:51:18;28.16;27.18;29.40;;
67306;Laerm;57661;51.436;5.978;2023-04-29T00:51:28;28.19;27.25;29.07;;
67306;Laerm;57661;51.436;5.978;2023-04-29T00:51:39;28.15;27.20;29.18;;
67306;Laerm;57661;51.436;5.978;2023-04-29T00:51:49;28.23;27.32;29.99;;
67306;Laerm;57661;51.436;5.978;2023-04-29T00:52:00;28.22;27.11;29.26;;
67306;Laerm;57661;51.436;5.978;2023-04-29T00:52:11;28.60;27.21;30.04;;
67306;Laerm;57661;51.436;5.978;2023-04-29T00:52:22;28.21;27.40;29.11;;
67306;Laerm;57661;51.436;5.978;2023-04-29T00:52:33;28.22;27.26;29.35;;
67306;Laerm;57661;51.436;5.978;2023-04-29T00:52:43;28.20;27.32;29.16;;
67306;Laerm;57661;51.436;5.978;2023-04-29T00:52:54;28.22;26.98;29.16;;
67306;Laerm;57661;51.436;5.978;2023-04-29T00:53:05;28.21;27.37;29.02;;
67306;Laerm;57661;51.436;5.978;2023-04-29T00:53:18;28.19;27.16;29.03;;
67306;Laerm;57661;51.436;5.978;2023-04-29T00:53:29;28.20;27.13;29.35;;
67306;Laerm;57661;51.436;5.978;2023-04-29T00:53:40;28.16;27.22;29.03;;
67306;Laerm;57661;51.436;5.978;2023-04-29T00:53:50;28.18;27.22;29.28;;
67306;Laerm;57661;51.436;5.978;2023-04-29T00:54:01;28.17;27.39;29.00;;
67306;Laerm;57661;51.436;5.978;2023-04-29T00:54:11;28.21;27.23;28.97;;
67306;Laerm;57661;51.436;5.978;2023-04-29T00:54:22;28.18;27.27;29.23;;
67306;Laerm;57661;51.436;5.978;2023-04-29T00:54:33;28.17;27.17;29.03;;
67306;Laerm;57661;51.436;5.978;2023-04-29T00:54:44;28.19;27.20;29.14;;
67306;Laerm;57661;51.436;5.978;2023-04-29T00:54:54;28.28;27.28;32.99;;
67306;Laerm;57661;51.436;5.978;2023-04-29T00:55:05;28.18;27.16;28.99;;
67306;Laerm;57661;51.436;5.978;2023-04-29T00:55:16;28.18;27.09;29.08;;
67306;Laerm;57661;51.436;5.978;2023-04-29T00:55:27;28.17;27.21;29.02;;
67306;Laerm;57661;51.436;5.978;2023-04-29T00:55:37;28.18;27.02;29.00;;
67306;Laerm;57661;51.436;5.978;2023-04-29T00:55:48;28.19;26.87;29.14;;
67306;Laerm;57661;51.436;5.978;2023-04-29T00:56:00;28.19;27.18;29.07;;
67306;Laerm;57661;51.436;5.978;2023-04-29T00:56:11;28.18;27.02;29.22;;
67306;Laerm;57661;51.436;5.978;2023-04-29T00:56:23;28.41;27.31;29.98;;
67306;Laerm;57661;51.436;5.978;2023-04-29T00:56:36;28.25;27.01;29.35;;
67306;Laerm;57661;51.436;5.978;2023-04-29T00:56:48;28.19;27.27;29.15;;
67306;Laerm;57661;51.436;5.978;2023-04-29T00:57:00;28.19;27.20;28.97;;
67306;Laerm;57661;51.436;5.978;2023-04-29T00:57:10;28.16;27.24;28.92;;
67306;Laerm;57661;51.436;5.978;2023-04-29T00:57:21;28.17;27.39;29.22;;
67306;Laerm;57661;51.436;5.978;2023-04-29T00:57:31;28.19;27.02;29.07;;
67306;Laerm;57661;51.436;5.978;2023-04-29T00:57:44;28.17;27.27;29.03;;
67306;Laerm;57661;51.436;5.978;2023-04-29T00:57:57;28.17;27.26;29.07;;
67306;Laerm;57661;51.436;5.978;2023-04-29T00:58:08;28.17;27.03;29.06;;
67306;Laerm;57661;51.436;5.978;2023-04-29T00:58:19;28.23;27.05;29.02;;
67306;Laerm;57661;51.436;5.978;2023-04-29T00:58:30;28.19;27.33;29.02;;
67306;Laerm;57661;51.436;5.978;2023-04-29T00:58:47;28.19;27.19;29.11;;
67306;Laerm;57661;51.436;5.978;2023-04-29T00:58:59;28.20;27.31;29.01;;
67306;Laerm;57661;51.436;5.978;2023-04-29T00:59:11;28.18;27.32;29.04;;
67306;Laerm;57661;51.436;5.978;2023-04-29T00:59:24;28.19;27.31;29.11;;
67306;Laerm;57661;51.436;5.978;2023-04-29T00:59:41;29.97;27.13;40.45;;